Airfield :
LOGIN :

Register | Disclaimer

   EN    FR    IT 

 










Legend :    VFR   Marginal VFR   IFR   Intensive IFR   Very Intensive IFR
Visi :
Ceiling :
>= 8 km
>= 3000ft
5 to 8 km
1000 to 3000 ft
1500m to 5 km
500 to 1000 ft
800 to 1500m
200 to 500 ft
< 800m
< 200 ft
Symbols :   Thunderstorms  Fog  Heavy snow  Heavy precipitations  Wind > 20 kt
SIGMETs :     Misc.  Thunderstorms  Icing  Turbulence  Mountain Waves  Volcanic Ashes






- Airport Elevation : 160 ft
- IATA code : FMO


EDDG - Münster Osnabrück Int.

CURRENT METAR :
  • 280520Z VRB02KT 0500 R07/0450N FG BKN001 01/01 Q1020 NOSIG

EXPIRED METARs :
  • 280450Z 06003KT 350V140 0500 R07/0500N FG BKN001 01/01 Q1020 NOSIG
  • 280420Z 05003KT 010V090 0600 R07/0450N FG BKN001 01/01 Q1020 NOSIG
  • 280350Z 05003KT 010V080 0600 R07/0400N FZFG BKN001 M00/M00 Q1020 TEMPO 0500
  • 280320Z 03002KT 0700 R07/0550D FZFG BKN001 M02/M02 Q1020 TEMPO 0500
  • 280250Z VRB01KT 0400 R07/0700D FZFG BKN001 M02/M02 Q1020 BECMG 0300

TAF AMD TAF EDDG
Valid from the 28 at 00:00 until the 29 at 00:00 UTC


280020Z 2800/2824 06003KT 3500 BR SCT001
BECMG 2800/2802 OVC001
TEMPO 2800/2807 0300 FZFG
BECMG 2805/2809 09008KT 6000 BKN007
BECMG 2813/2816 BKN012
TEMPO 2816/2822 3000 BR SCT012
BECMG 2822/2824 3000 BR NSC



MET'MAP, your aeronautical weather chart ! - Copyright ORBIFLY December 2007 - Disclaimer

ORBIFLY MET'MAP TEAM :

Programming & Development : Alexandra Zaïnal
Concept & original design : Baudouin d'Aumeries
Assistance for programming : Marc-Olivier Méhu
Technical & hardware support : Manuel Goepfert

Contact : metmap@orbifly.com




SOURCES & CREDITS :

   NOAA